createdAt,value
2023-05-13T00:00:39.367Z,74.34
2023-05-13T00:03:07.714Z,74.23
2023-05-13T00:05:35.885Z,74.06
2023-05-13T00:08:07.168Z,74.35
2023-05-13T00:10:35.788Z,74.43
2023-05-13T00:13:03.677Z,74.46
2023-05-13T00:15:31.808Z,74.69
2023-05-13T00:18:00.009Z,74.73
2023-05-13T00:20:27.989Z,74.70
2023-05-13T00:22:55.887Z,74.94
2023-05-13T00:25:24.461Z,74.88
2023-05-13T00:27:52.390Z,74.84
2023-05-13T00:30:21.316Z,74.88
2023-05-13T00:32:49.340Z,74.76
2023-05-13T00:35:17.698Z,74.93
2023-05-13T00:37:46.832Z,75.08
2023-05-13T00:40:23.910Z,74.85
2023-05-13T00:42:54.003Z,74.69
2023-05-13T00:45:22.147Z,74.56
2023-05-13T00:47:50.306Z,74.86
2023-05-13T00:50:18.747Z,74.78
2023-05-13T00:52:50.088Z,74.69
2023-05-13T00:55:18.434Z,74.96
2023-05-13T00:57:46.305Z,75.14
2023-05-13T01:00:15.135Z,75.53
2023-05-13T01:02:55.137Z,76.01
2023-05-13T01:05:47.171Z,76.40
2023-05-13T01:08:20.531Z,76.83
2023-05-13T01:10:54.424Z,77.20
2023-05-13T01:13:27.104Z,77.42
2023-05-13T01:16:20.632Z,77.67
2023-05-13T01:18:53.784Z,78.20
2023-05-13T01:21:27.996Z,78.39
2023-05-13T01:23:56.589Z,78.58
2023-05-13T01:26:26.925Z,78.84
2023-05-13T01:28:55.338Z,79.11
2023-05-13T01:31:24.285Z,79.39
2023-05-13T01:33:53.240Z,79.49
2023-05-13T01:36:21.718Z,79.75
2023-05-13T01:38:50.759Z,79.85
2023-05-13T01:41:20.830Z,80.09
2023-05-13T01:43:48.889Z,80.24
2023-05-13T01:46:16.923Z,80.30
2023-05-13T01:48:45.031Z,80.59
2023-05-13T01:51:13.657Z,80.74
2023-05-13T01:53:41.521Z,80.89
2023-05-13T01:56:11.025Z,81.02
2023-05-13T01:58:39.194Z,81.14
2023-05-13T02:01:07.266Z,81.31
2023-05-13T02:03:36.505Z,81.48
2023-05-13T02:06:04.955Z,81.63
2023-05-13T02:08:32.883Z,81.73
2023-05-13T02:11:01.589Z,81.70
2023-05-13T02:13:30.894Z,81.81
2023-05-13T02:15:58.961Z,81.92
2023-05-13T02:18:27.201Z,82.00
2023-05-13T02:20:55.519Z,82.08
2023-05-13T02:23:23.670Z,82.25
2023-05-13T02:25:51.633Z,82.42
2023-05-13T02:28:19.570Z,82.63
2023-05-13T02:30:47.527Z,82.74
2023-05-13T02:33:15.988Z,82.83
2023-05-13T02:35:43.953Z,82.93
2023-05-13T02:38:12.198Z,83.00
2023-05-13T02:40:40.067Z,83.19
2023-05-13T02:43:08.295Z,83.31
2023-05-13T02:46:03.885Z,83.37
2023-05-13T02:48:33.419Z,83.59
2023-05-13T02:51:02.558Z,83.65
2023-05-13T02:53:30.926Z,83.80
2023-05-13T02:56:03.411Z,84.09
2023-05-13T02:58:31.387Z,84.14
2023-05-13T03:01:00.288Z,84.35
2023-05-13T03:03:29.290Z,84.56
2023-05-13T03:06:00.473Z,84.63
2023-05-13T03:08:28.503Z,84.76
2023-05-13T03:10:57.090Z,85.04
2023-05-13T03:13:25.339Z,85.21
2023-05-13T03:15:53.359Z,85.44
2023-05-13T03:18:21.376Z,85.55
2023-05-13T03:20:49.500Z,85.65
2023-05-13T03:23:17.432Z,85.94
2023-05-13T03:25:47.834Z,86.07
2023-05-13T03:28:16.182Z,86.21
2023-05-13T03:30:45.458Z,86.36
2023-05-13T03:33:19.757Z,86.61
2023-05-13T03:35:49.693Z,86.77
2023-05-13T03:38:20.217Z,86.96
2023-05-13T03:40:50.828Z,87.14
2023-05-13T03:43:18.930Z,87.28
2023-05-13T03:45:52.842Z,87.44
2023-05-13T03:48:23.118Z,87.49
2023-05-13T03:50:53.152Z,87.60
2023-05-13T03:53:21.933Z,87.67
2023-05-13T03:55:50.410Z,87.80
2023-05-13T03:58:19.172Z,87.83
2023-05-13T04:00:47.276Z,87.90
2023-05-13T04:03:16.389Z,87.85
2023-05-13T04:05:48.848Z,87.85
2023-05-13T04:08:16.926Z,87.87
2023-05-13T04:10:45.113Z,87.81
2023-05-13T04:13:13.322Z,87.76
2023-05-13T04:15:41.360Z,87.96
2023-05-13T04:18:10.743Z,87.80
2023-05-13T04:20:42.509Z,86.91
2023-05-13T04:23:10.577Z,85.74
2023-05-13T04:25:38.657Z,84.93
2023-05-13T04:28:07.254Z,84.38
2023-05-13T04:30:43.856Z,83.90
2023-05-13T04:33:12.303Z,83.99
2023-05-13T04:35:43.956Z,84.39
2023-05-13T04:38:12.719Z,84.70
2023-05-13T04:40:41.013Z,84.45
2023-05-13T04:43:15.116Z,85.18
2023-05-13T04:45:53.196Z,85.66
2023-05-13T04:48:21.803Z,86.01
2023-05-13T04:50:50.820Z,86.16
2023-05-13T04:53:19.899Z,86.22
2023-05-13T04:55:57.114Z,86.26
2023-05-13T04:58:28.828Z,86.15
2023-05-13T05:00:57.430Z,86.54
2023-05-13T05:03:25.784Z,86.89
2023-05-13T05:05:54.417Z,86.88
2023-05-13T05:08:23.877Z,87.06
2023-05-13T05:10:52.470Z,87.04
2023-05-13T05:13:21.153Z,86.98
2023-05-13T05:15:49.384Z,86.93
2023-05-13T05:18:17.445Z,86.68
2023-05-13T05:20:48.792Z,86.31
2023-05-13T05:23:18.873Z,86.23
2023-05-13T05:25:48.616Z,86.02
2023-05-13T05:28:18.617Z,85.89
2023-05-13T05:30:47.552Z,85.64
2023-05-13T05:33:21.647Z,85.81
2023-05-13T05:35:52.733Z,85.18
2023-05-13T05:38:25.245Z,81.53
2023-05-13T05:40:54.317Z,81.82
2023-05-13T05:43:22.367Z,82.49
2023-05-13T05:45:53.585Z,82.53
2023-05-13T05:48:22.422Z,82.82
2023-05-13T05:50:50.831Z,81.62
2023-05-13T05:53:26.394Z,77.54
2023-05-13T05:55:58.005Z,75.01
2023-05-13T05:58:27.116Z,73.56
2023-05-13T06:00:55.186Z,71.66
2023-05-13T06:03:23.517Z,70.63
2023-05-13T06:05:51.712Z,69.48
2023-05-13T06:08:20.140Z,69.59
2023-05-13T06:10:48.273Z,70.68
2023-05-13T06:13:16.755Z,71.65
2023-05-13T06:15:44.862Z,71.65
2023-05-13T06:18:12.993Z,74.57
2023-05-13T06:20:41.274Z,74.29
2023-05-13T06:23:11.992Z,72.25
2023-05-13T06:25:39.986Z,70.68
2023-05-13T06:31:06.045Z,70.40
2023-05-13T06:33:34.162Z,70.08
2023-05-13T06:36:03.783Z,69.43
2023-05-13T06:38:34.353Z,70.10
2023-05-13T06:41:03.003Z,69.25
2023-05-13T06:43:34.497Z,72.13
2023-05-13T06:46:13.289Z,71.16
2023-05-13T06:48:41.287Z,70.07
2023-05-13T06:51:09.236Z,68.80
2023-05-13T06:53:37.489Z,68.46
2023-05-13T06:56:05.777Z,69.00
2023-05-13T06:58:33.842Z,69.29
2023-05-13T07:01:02.288Z,68.81
2023-05-13T07:03:30.400Z,68.62
2023-05-13T07:05:58.376Z,66.94
2023-05-13T07:08:26.869Z,68.00
2023-05-13T07:10:55.029Z,66.72
2023-05-13T07:13:23.136Z,66.93
2023-05-13T07:15:51.232Z,66.24
2023-05-13T07:18:21.722Z,70.21
2023-05-13T07:20:49.762Z,67.57
2023-05-13T07:23:17.718Z,66.71
2023-05-13T07:25:46.135Z,66.24
2023-05-13T07:30:56.664Z,65.21
2023-05-13T07:33:25.433Z,66.62
2023-05-13T07:35:54.788Z,65.95
2023-05-13T07:38:23.609Z,66.60
2023-05-13T07:40:52.546Z,64.52
2023-05-13T07:43:24.258Z,65.07
2023-05-13T07:45:52.948Z,64.56
2023-05-13T07:48:21.383Z,63.67
2023-05-13T07:50:49.985Z,64.27
2023-05-13T07:53:19.812Z,64.58
2023-05-13T07:55:50.104Z,66.25
2023-05-13T07:58:20.310Z,66.34
2023-05-13T08:00:49.756Z,64.26
2023-05-13T08:03:17.896Z,64.93
2023-05-13T08:05:48.165Z,64.95
2023-05-13T08:08:24.812Z,66.02
2023-05-13T08:10:53.058Z,65.67
2023-05-13T08:13:21.951Z,65.60
2023-05-13T08:15:49.937Z,63.72
2023-05-13T08:18:18.315Z,64.21
2023-05-13T08:20:47.028Z,65.03
2023-05-13T08:23:19.180Z,66.33
2023-05-13T08:25:47.939Z,66.70
2023-05-13T08:28:18.831Z,66.75
2023-05-13T08:30:49.325Z,65.93
2023-05-13T08:33:32.043Z,65.76
2023-05-13T08:38:48.955Z,67.86
2023-05-13T08:41:22.158Z,67.78
2023-05-13T08:43:55.585Z,68.24
2023-05-13T08:49:10.747Z,70.59
2023-05-13T08:51:38.808Z,70.98
2023-05-13T08:54:09.952Z,71.22
2023-05-13T08:59:21.278Z,67.34
2023-05-13T09:01:56.821Z,67.64
2023-05-13T09:04:26.312Z,68.35
2023-05-13T09:09:37.412Z,67.34
2023-05-13T09:12:07.297Z,67.78
2023-05-13T09:17:30.414Z,66.84
2023-05-13T09:22:55.144Z,68.04
2023-05-13T09:25:30.544Z,66.73
2023-05-13T09:28:01.107Z,64.68
2023-05-13T09:30:36.231Z,64.87
2023-05-13T09:33:16.343Z,65.50
2023-05-13T09:35:51.122Z,62.99
2023-05-13T09:38:26.998Z,63.67
2023-05-13T09:41:02.225Z,64.46
2023-05-13T09:43:35.967Z,63.52
2023-05-13T09:46:08.091Z,63.10
2023-05-13T09:48:42.989Z,63.30
2023-05-13T09:51:11.520Z,62.25
2023-05-13T09:53:42.593Z,60.06
2023-05-13T09:56:11.486Z,61.01
2023-05-13T09:58:44.523Z,61.59
2023-05-13T10:01:12.908Z,62.21
2023-05-13T10:03:40.989Z,60.91
2023-05-13T10:06:09.104Z,59.83
2023-05-13T10:08:39.337Z,60.39
2023-05-13T10:14:08.748Z,60.41
2023-05-13T10:16:42.766Z,59.86
2023-05-13T10:19:11.851Z,59.69
2023-05-13T10:21:44.606Z,58.59
2023-05-13T10:24:13.949Z,57.67
2023-05-13T10:26:44.010Z,56.31
2023-05-13T10:29:16.252Z,56.06
2023-05-13T10:34:33.781Z,56.64
2023-05-13T10:37:34.548Z,54.45
2023-05-13T10:40:26.561Z,54.71
2023-05-13T10:43:28.398Z,54.37
2023-05-13T10:46:12.850Z,54.04
2023-05-13T10:49:00.404Z,54.25
2023-05-13T10:51:28.772Z,53.12
2023-05-13T10:53:59.274Z,53.31
2023-05-13T10:56:29.006Z,52.53
2023-05-13T10:59:05.491Z,53.79
2023-05-13T11:01:43.723Z,51.96
2023-05-13T11:04:20.472Z,52.25
2023-05-13T11:06:50.469Z,47.84
2023-05-13T11:09:21.781Z,49.31
2023-05-13T11:12:02.926Z,47.47
2023-05-13T11:14:36.402Z,47.89
2023-05-13T11:17:04.793Z,46.38
2023-05-13T11:19:38.089Z,47.05
2023-05-13T11:22:29.109Z,47.73
2023-05-13T11:25:27.052Z,47.25
2023-05-13T11:27:56.983Z,45.86
2023-05-13T11:30:27.970Z,45.97
2023-05-13T11:32:58.244Z,44.28
2023-05-13T11:35:32.849Z,45.93
2023-05-13T11:38:02.868Z,44.56
2023-05-13T11:40:40.052Z,43.82
2023-05-13T11:43:09.723Z,44.99
2023-05-13T11:45:41.238Z,45.52
2023-05-13T11:48:22.889Z,43.51
2023-05-13T11:50:54.774Z,42.61
2023-05-13T11:53:23.336Z,43.48
2023-05-13T11:55:52.014Z,43.17
2023-05-13T11:58:22.630Z,42.63
2023-05-13T12:00:52.129Z,42.42
2023-05-13T12:03:20.799Z,41.29
2023-05-13T12:05:51.882Z,41.42
2023-05-13T12:08:23.836Z,41.55
2023-05-13T12:10:52.795Z,43.07
2023-05-13T12:13:21.998Z,42.21
2023-05-13T12:15:50.881Z,42.12
2023-05-13T12:18:19.089Z,41.58
2023-05-13T12:20:47.184Z,41.44
2023-05-13T12:23:15.898Z,42.68
2023-05-13T12:25:48.242Z,40.87
2023-05-13T12:28:24.774Z,42.34
2023-05-13T12:30:57.874Z,41.34
2023-05-13T12:33:42.730Z,40.26
2023-05-13T12:36:33.960Z,40.51
2023-05-13T12:39:09.805Z,40.19
2023-05-13T12:41:40.724Z,40.58
2023-05-13T12:44:13.777Z,40.71
2023-05-13T12:46:53.411Z,41.33
2023-05-13T12:49:22.499Z,42.28
2023-05-13T12:51:51.930Z,42.63
2023-05-13T12:54:20.171Z,42.01
2023-05-13T12:56:48.610Z,43.00
2023-05-13T12:59:19.485Z,43.58
2023-05-13T13:01:49.900Z,42.64
2023-05-13T13:04:23.717Z,43.49
2023-05-13T13:06:52.413Z,41.89
2023-05-13T13:09:20.752Z,43.39
2023-05-13T13:11:49.310Z,44.36
2023-05-13T13:14:20.883Z,43.25
2023-05-13T13:16:51.301Z,43.52
2023-05-13T13:19:19.992Z,44.32
2023-05-13T13:21:48.161Z,43.35
2023-05-13T13:24:16.239Z,42.29
2023-05-13T13:26:44.414Z,42.25
2023-05-13T13:29:12.786Z,43.02
2023-05-13T13:31:41.153Z,42.93
2023-05-13T13:34:12.169Z,44.51
2023-05-13T13:36:40.832Z,44.21
2023-05-13T13:39:09.433Z,43.93
2023-05-13T13:41:38.627Z,44.28
2023-05-13T13:44:08.000Z,44.15
2023-05-13T13:46:36.193Z,45.24
2023-05-13T13:49:13.081Z,44.44
2023-05-13T13:51:52.315Z,44.27
2023-05-13T13:54:21.313Z,44.89
2023-05-13T13:56:49.568Z,44.94
2023-05-13T13:59:19.484Z,45.19
2023-05-13T14:01:48.024Z,44.09
2023-05-13T14:04:23.967Z,44.02
2023-05-13T14:06:53.780Z,44.70
2023-05-13T14:09:22.382Z,42.25
2023-05-13T14:11:51.587Z,43.77
2023-05-13T14:14:19.969Z,44.04
2023-05-13T14:16:48.711Z,45.37
2023-05-13T14:22:02.084Z,45.33
2023-05-13T14:24:30.929Z,45.81
2023-05-13T14:26:59.518Z,43.98
2023-05-13T14:29:27.837Z,43.66
2023-05-13T14:31:56.827Z,42.73
2023-05-13T14:34:26.099Z,44.09
2023-05-13T14:36:54.602Z,44.17
2023-05-13T14:39:23.182Z,41.74
2023-05-13T14:41:53.055Z,43.24
2023-05-13T14:44:23.226Z,43.62
2023-05-13T14:46:53.972Z,44.03
2023-05-13T14:49:23.627Z,44.08
2023-05-13T14:51:51.869Z,44.81
2023-05-13T14:54:20.479Z,44.24
2023-05-13T14:57:00.728Z,44.90
2023-05-13T14:59:29.823Z,43.59
2023-05-13T15:01:58.202Z,43.69
2023-05-13T15:04:28.189Z,42.68
2023-05-13T15:06:57.849Z,43.06
2023-05-13T15:09:26.143Z,43.23
2023-05-13T15:11:54.827Z,44.07
2023-05-13T15:14:26.162Z,44.88
2023-05-13T15:16:55.191Z,44.53
2023-05-13T15:19:23.346Z,43.98
2023-05-13T15:21:51.699Z,43.60
2023-05-13T15:24:19.821Z,44.31
2023-05-13T15:26:50.253Z,43.66
2023-05-13T15:29:18.582Z,44.28
2023-05-13T15:31:49.246Z,45.13
2023-05-13T15:34:17.420Z,44.75
2023-05-13T15:36:47.772Z,43.05
2023-05-13T15:39:16.717Z,44.04
2023-05-13T15:41:45.193Z,45.35
2023-05-13T15:44:13.720Z,43.80
2023-05-13T15:46:42.472Z,43.88
2023-05-13T15:49:10.971Z,44.31
2023-05-13T15:51:39.580Z,44.93
2023-05-13T15:54:08.120Z,45.51
2023-05-13T15:56:36.255Z,45.59
2023-05-13T15:59:04.728Z,46.56
2023-05-13T16:01:33.249Z,45.77
2023-05-13T16:04:02.080Z,47.16
2023-05-13T16:06:30.554Z,46.48
2023-05-13T16:09:01.046Z,45.18
2023-05-13T16:11:29.854Z,44.84
2023-05-13T16:13:58.874Z,44.91
2023-05-13T16:16:27.844Z,44.81
2023-05-13T16:18:56.650Z,43.69
2023-05-13T16:21:25.143Z,43.79
2023-05-13T16:23:53.335Z,44.04
2023-05-13T16:26:22.827Z,44.16
2023-05-13T16:28:53.933Z,45.50
2023-05-13T16:31:25.656Z,44.83
2023-05-13T16:33:54.286Z,45.33
2023-05-13T16:36:23.010Z,45.42
2023-05-13T16:38:51.106Z,45.63
2023-05-13T16:41:19.497Z,44.56
2023-05-13T16:43:47.664Z,44.87
2023-05-13T16:46:17.535Z,45.70
2023-05-13T16:48:46.314Z,46.06
2023-05-13T16:51:15.483Z,45.47
2023-05-13T16:53:43.740Z,45.34
2023-05-13T16:56:12.302Z,44.69
2023-05-13T16:58:40.706Z,44.61
2023-05-13T17:01:09.616Z,44.38
2023-05-13T17:03:38.405Z,45.07
2023-05-13T17:06:08.411Z,44.09
2023-05-13T17:08:37.078Z,43.65
2023-05-13T17:11:05.771Z,44.95
2023-05-13T17:13:36.799Z,45.78
2023-05-13T17:16:05.900Z,46.88
2023-05-13T17:18:34.702Z,47.17
2023-05-13T17:21:04.511Z,47.31
2023-05-13T17:23:35.851Z,47.95
2023-05-13T17:26:04.342Z,47.53
2023-05-13T17:28:37.050Z,47.33
2023-05-13T17:31:08.837Z,47.16
2023-05-13T17:33:37.460Z,47.80
2023-05-13T17:36:06.027Z,47.75
2023-05-13T17:38:34.714Z,48.46
2023-05-13T17:41:03.029Z,47.98
2023-05-13T17:46:13.898Z,48.60
2023-05-13T17:48:43.138Z,49.26
2023-05-13T17:51:12.732Z,48.94
2023-05-13T17:53:42.018Z,49.64
2023-05-13T17:56:11.418Z,49.66
2023-05-13T17:58:42.543Z,49.71
2023-05-13T18:01:15.197Z,49.76
2023-05-13T18:03:44.885Z,50.25
2023-05-13T18:06:14.144Z,50.41
2023-05-13T18:08:47.248Z,50.74
2023-05-13T18:11:16.327Z,51.16
2023-05-13T18:13:44.911Z,51.77
2023-05-13T18:16:19.845Z,52.43
2023-05-13T18:18:48.913Z,53.22
2023-05-13T18:21:21.995Z,54.53
2023-05-13T18:23:50.756Z,55.45
2023-05-13T18:26:20.391Z,56.30
2023-05-13T18:28:52.111Z,57.04
2023-05-13T18:31:21.048Z,57.74
2023-05-13T18:33:52.407Z,58.66
2023-05-13T18:36:24.132Z,59.26
2023-05-13T18:38:55.693Z,59.50
2023-05-13T18:41:25.985Z,59.89
2023-05-13T18:43:55.257Z,60.43
2023-05-13T18:46:27.247Z,60.58
2023-05-13T18:48:58.044Z,60.80
2023-05-13T18:51:27.774Z,60.77
2023-05-13T18:53:59.593Z,61.14
2023-05-13T18:56:33.652Z,61.55
2023-05-13T18:59:07.970Z,61.36
2023-05-13T19:01:40.611Z,61.60
2023-05-13T19:04:23.333Z,61.29
2023-05-13T19:06:52.157Z,61.38
2023-05-13T19:09:22.546Z,61.09
2023-05-13T19:11:51.632Z,61.32
2023-05-13T19:14:20.431Z,61.78
2023-05-13T19:16:59.914Z,61.64
2023-05-13T19:19:28.985Z,61.93
2023-05-13T19:21:58.919Z,62.26
2023-05-13T19:24:27.683Z,62.50
2023-05-13T19:26:56.347Z,63.03
2023-05-13T19:29:27.989Z,63.67
2023-05-13T19:32:09.909Z,64.01
2023-05-13T19:34:38.748Z,64.69
2023-05-13T19:37:10.772Z,65.16
2023-05-13T19:39:40.184Z,65.54
2023-05-13T19:42:19.291Z,65.94
2023-05-13T19:44:57.902Z,66.44
2023-05-13T19:50:16.944Z,67.05
2023-05-13T19:55:33.009Z,67.72
2023-05-13T19:58:08.143Z,67.94
2023-05-13T20:00:37.625Z,68.19
2023-05-13T20:03:15.984Z,68.26
2023-05-13T20:11:25.816Z,68.12
2023-05-13T20:13:54.955Z,67.94
2023-05-13T20:19:15.843Z,68.15
2023-05-13T20:21:45.251Z,68.52
2023-05-13T20:27:16.857Z,68.74
2023-05-13T20:30:04.270Z,68.93
2023-05-13T20:35:21.173Z,69.45
2023-05-13T20:51:51.794Z,71.79
2023-05-13T20:54:28.391Z,72.23
2023-05-13T20:57:05.378Z,72.54
2023-05-13T20:59:33.951Z,73.11
2023-05-13T21:04:58.041Z,73.81
2023-05-13T21:07:27.559Z,74.06
2023-05-13T21:10:07.900Z,74.49
2023-05-13T21:15:31.467Z,74.89
2023-05-13T21:20:50.970Z,75.48
2023-05-13T21:23:20.545Z,75.56
2023-05-13T21:25:54.276Z,75.61
2023-05-13T21:28:23.849Z,75.60
2023-05-13T21:31:12.028Z,75.66
2023-05-13T21:36:26.610Z,75.51
2023-05-13T21:38:57.025Z,75.88
2023-05-13T21:49:56.285Z,76.62
2023-05-13T21:52:30.164Z,76.93
2023-05-13T21:55:03.764Z,76.98
2023-05-13T21:57:43.382Z,77.32
2023-05-13T22:03:11.228Z,77.51
2023-05-13T22:14:07.376Z,77.82
2023-05-13T22:19:25.443Z,78.09
2023-05-13T22:26:03.953Z,78.39
2023-05-13T22:28:43.281Z,78.30
2023-05-13T22:31:21.670Z,78.41
2023-05-13T22:36:33.434Z,78.47
2023-05-13T22:39:01.531Z,78.50
2023-05-13T22:41:29.476Z,78.65
2023-05-13T22:43:58.751Z,78.81
2023-05-13T22:46:27.964Z,79.03
2023-05-13T22:48:56.713Z,79.04
2023-05-13T22:51:27.847Z,79.29
2023-05-13T22:53:56.758Z,79.49
2023-05-13T22:56:25.093Z,79.76
2023-05-13T22:59:03.253Z,79.76
2023-05-13T23:01:31.966Z,80.07
2023-05-13T23:04:00.376Z,80.30
2023-05-13T23:06:28.589Z,80.49
2023-05-13T23:08:59.111Z,80.68
2023-05-13T23:11:27.607Z,80.92
2023-05-13T23:13:58.289Z,81.09
2023-05-13T23:16:26.449Z,81.38
2023-05-13T23:21:39.475Z,82.13
2023-05-13T23:24:10.240Z,82.64
2023-05-13T23:26:38.409Z,83.11
2023-05-13T23:29:06.478Z,83.65
2023-05-13T23:31:34.720Z,84.00
2023-05-13T23:34:02.899Z,84.45
2023-05-13T23:36:32.126Z,84.91
2023-05-13T23:41:46.505Z,85.83
2023-05-13T23:44:17.737Z,86.14
2023-05-13T23:46:45.844Z,86.50
2023-05-13T23:49:13.825Z,86.75
2023-05-13T23:51:41.861Z,87.03
2023-05-13T23:54:09.935Z,87.29
2023-05-13T23:56:38.143Z,87.55
2023-05-13T23:59:06.524Z,87.81
